createdAt,value
2019-04-16T00:02:54.564Z,74.15
2019-04-16T00:05:46.117Z,73.80
2019-04-16T00:08:37.182Z,73.26
2019-04-16T00:11:36.054Z,73.26
2019-04-16T00:14:34.014Z,73.16
2019-04-16T00:17:13.155Z,72.52
2019-04-16T00:19:52.072Z,71.71
2019-04-16T00:22:37.918Z,71.48
2019-04-16T00:25:15.058Z,70.53
2019-04-16T00:27:52.341Z,70.47
2019-04-16T00:30:30.060Z,70.67
2019-04-16T00:33:07.624Z,71.21
2019-04-16T00:35:46.615Z,69.49
2019-04-16T00:38:24.058Z,70.52
2019-04-16T00:41:02.372Z,69.31
2019-04-16T00:43:39.435Z,68.21
2019-04-16T00:46:16.520Z,67.48
2019-04-16T00:48:54.820Z,66.69
2019-04-16T00:51:33.461Z,65.71
2019-04-16T00:54:11.386Z,66.07
2019-04-16T00:56:49.069Z,65.26
2019-04-16T00:59:25.680Z,65.70
2019-04-16T01:02:03.755Z,65.94
2019-04-16T01:04:41.505Z,65.92
2019-04-16T01:07:19.156Z,66.19
2019-04-16T01:09:56.659Z,66.80
2019-04-16T01:12:35.964Z,66.69
2019-04-16T01:15:12.720Z,67.25
2019-04-16T01:17:49.672Z,66.85
2019-04-16T01:20:27.678Z,66.58
2019-04-16T01:23:05.422Z,65.73
2019-04-16T01:25:42.930Z,65.30
2019-04-16T01:28:23.816Z,64.67
2019-04-16T01:31:11.412Z,64.00
2019-04-16T01:34:10.365Z,61.34
2019-04-16T01:36:54.402Z,63.17
2019-04-16T01:39:32.108Z,64.87
2019-04-16T01:42:09.160Z,65.95
2019-04-16T01:44:47.256Z,64.90
2019-04-16T01:47:25.877Z,65.83
2019-04-16T01:50:03.261Z,66.56
2019-04-16T01:52:42.659Z,65.65
2019-04-16T01:55:20.516Z,64.28
2019-04-16T01:57:59.635Z,63.88
2019-04-16T02:00:39.215Z,61.73
2019-04-16T02:03:17.806Z,62.82
2019-04-16T02:05:56.525Z,63.15
2019-04-16T02:08:33.804Z,61.61
2019-04-16T02:11:11.447Z,61.63
2019-04-16T02:13:48.647Z,59.28
2019-04-16T02:16:26.860Z,60.02
2019-04-16T02:19:04.258Z,61.51
2019-04-16T02:21:42.413Z,61.88
2019-04-16T02:24:20.780Z,61.01
2019-04-16T02:26:58.321Z,60.01
2019-04-16T02:29:36.520Z,59.59
2019-04-16T02:32:13.446Z,59.44
2019-04-16T02:34:51.046Z,58.54
2019-04-16T02:37:28.372Z,57.58
2019-04-16T02:40:07.326Z,60.53
2019-04-16T02:42:46.866Z,59.82
2019-04-16T02:45:24.602Z,57.26
2019-04-16T02:48:05.198Z,56.53
2019-04-16T02:50:47.711Z,55.06
2019-04-16T02:54:04.418Z,55.06
2019-04-16T02:57:25.880Z,54.43
2019-04-16T02:59:59.800Z,51.00
2019-04-16T03:02:54.612Z,49.49
2019-04-16T03:05:40.791Z,48.50
2019-04-16T03:08:17.969Z,49.61
2019-04-16T03:10:56.077Z,50.04
2019-04-16T03:13:34.116Z,51.20
2019-04-16T03:16:18.967Z,50.49
2019-04-16T03:19:03.609Z,48.95
2019-04-16T03:21:41.383Z,48.85
2019-04-16T03:24:19.564Z,48.16
2019-04-16T03:26:57.314Z,49.68
2019-04-16T03:29:34.859Z,48.11
2019-04-16T03:32:15.024Z,48.74
2019-04-16T03:34:53.366Z,53.50
2019-04-16T03:37:32.990Z,52.61
2019-04-16T03:40:17.123Z,54.68
2019-04-16T03:42:48.914Z,53.84
2019-04-16T03:45:26.481Z,53.89
2019-04-16T03:48:03.633Z,55.99
2019-04-16T03:50:40.639Z,56.63
2019-04-16T03:53:18.500Z,55.87
2019-04-16T03:55:58.311Z,56.12
2019-04-16T03:58:38.535Z,57.72
2019-04-16T04:01:15.964Z,57.90
2019-04-16T04:03:54.437Z,57.71
2019-04-16T04:06:33.239Z,56.13
2019-04-16T04:09:11.787Z,57.18
2019-04-16T04:11:49.040Z,56.80
2019-04-16T04:14:26.737Z,55.65
2019-04-16T04:17:06.595Z,55.28
2019-04-16T04:19:43.525Z,55.69
2019-04-16T04:22:22.799Z,58.42
2019-04-16T04:25:04.361Z,57.71
2019-04-16T04:27:40.152Z,59.87
2019-04-16T04:30:20.388Z,60.82
2019-04-16T04:32:57.587Z,60.10
2019-04-16T04:35:35.269Z,60.38
2019-04-16T04:38:12.629Z,60.78
2019-04-16T04:40:50.950Z,63.17
2019-04-16T04:43:29.383Z,62.15
2019-04-16T04:46:12.992Z,58.81
2019-04-16T04:48:48.261Z,57.47
2019-04-16T04:51:25.426Z,56.23
2019-04-16T04:54:02.478Z,57.44
2019-04-16T04:56:40.920Z,56.81
2019-04-16T04:59:17.991Z,59.15
2019-04-16T05:01:55.866Z,60.03
2019-04-16T05:04:57.530Z,60.39
2019-04-16T05:07:34.588Z,60.34
2019-04-16T05:10:12.347Z,59.56
2019-04-16T05:12:53.713Z,60.49
2019-04-16T05:15:30.726Z,60.82
2019-04-16T05:18:09.804Z,58.76
2019-04-16T05:20:47.673Z,59.35
2019-04-16T05:23:27.303Z,60.64
2019-04-16T05:26:05.430Z,60.44
2019-04-16T05:28:45.523Z,59.87
2019-04-16T05:31:25.645Z,60.83
2019-04-16T05:34:02.445Z,60.53
2019-04-16T05:36:40.273Z,59.86
2019-04-16T05:39:18.441Z,61.67
2019-04-16T05:41:55.861Z,61.27
2019-04-16T05:44:34.077Z,60.30
2019-04-16T05:47:10.834Z,60.36
2019-04-16T05:49:48.122Z,60.22
2019-04-16T05:52:25.701Z,60.09
2019-04-16T05:55:08.534Z,59.87
2019-04-16T05:57:47.537Z,59.62
2019-04-16T06:00:34.753Z,58.39
2019-04-16T06:03:14.261Z,57.77
2019-04-16T06:07:08.009Z,58.77
2019-04-16T06:15:35.985Z,59.62
2019-04-16T07:22:55.190Z,55.35
2019-04-16T07:25:39.390Z,55.02
2019-04-16T07:28:28.735Z,55.40
2019-04-16T07:31:32.884Z,55.61
2019-04-16T07:34:09.045Z,56.83
2019-04-16T07:37:00.965Z,56.47
2019-04-16T07:39:54.835Z,54.68
2019-04-16T07:43:47.226Z,54.29
2019-04-16T07:45:45.898Z,54.95
2019-04-16T07:48:32.818Z,54.61
2019-04-16T07:51:26.275Z,51.88
2019-04-16T07:54:22.451Z,52.46
2019-04-16T07:57:01.063Z,53.47
2019-04-16T07:59:39.251Z,52.25
2019-04-16T08:02:17.683Z,50.16
2019-04-16T08:04:55.944Z,51.91
2019-04-16T08:07:33.986Z,53.63
2019-04-16T08:10:11.206Z,53.19
2019-04-16T08:12:52.345Z,50.74
2019-04-16T08:15:29.536Z,53.36
2019-04-16T08:18:12.389Z,54.33
2019-04-16T08:21:00.636Z,54.42
2019-04-16T08:23:52.931Z,54.88
2019-04-16T08:26:29.281Z,54.31
2019-04-16T08:29:08.360Z,53.58
2019-04-16T08:31:48.112Z,54.37
2019-04-16T08:34:25.308Z,53.05
2019-04-16T08:37:02.597Z,52.93
2019-04-16T08:39:41.406Z,52.66
2019-04-16T08:42:18.200Z,52.25
2019-04-16T08:44:55.122Z,51.72
2019-04-16T08:47:32.422Z,51.65
2019-04-16T08:50:12.179Z,52.04
2019-04-16T08:52:49.697Z,52.17
2019-04-16T08:55:27.546Z,51.14
2019-04-16T08:58:06.370Z,50.31
2019-04-16T09:00:47.765Z,48.15
2019-04-16T09:03:26.939Z,50.63
2019-04-16T09:06:04.649Z,49.92
2019-04-16T09:08:53.836Z,50.08
2019-04-16T09:11:35.062Z,52.88
2019-04-16T09:14:10.723Z,50.66
2019-04-16T09:17:01.898Z,49.80
2019-04-16T09:19:40.091Z,49.57
2019-04-16T09:22:17.790Z,49.47
2019-04-16T09:25:29.684Z,51.57
2019-04-16T09:28:26.232Z,50.68
2019-04-16T09:31:31.471Z,50.97
2019-04-16T09:34:13.008Z,52.43
2019-04-16T09:37:03.466Z,51.10
2019-04-16T09:39:57.598Z,47.58
2019-04-16T09:42:35.782Z,47.40
2019-04-16T09:45:20.133Z,49.86
2019-04-16T09:47:57.327Z,48.44
2019-04-16T09:50:34.873Z,49.49
2019-04-16T09:53:12.991Z,50.86
2019-04-16T09:55:51.427Z,51.74
2019-04-16T09:58:30.130Z,50.95
2019-04-16T10:01:11.357Z,50.12
2019-04-16T10:03:53.677Z,52.79
2019-04-16T10:06:31.927Z,51.90
2019-04-16T10:09:09.797Z,51.59
2019-04-16T10:11:47.438Z,52.49
2019-04-16T10:14:24.317Z,51.50
2019-04-16T10:17:02.027Z,53.40
2019-04-16T10:19:42.975Z,54.82
2019-04-16T10:22:18.451Z,53.93
2019-04-16T10:25:02.305Z,52.00
2019-04-16T10:28:04.925Z,52.71
2019-04-16T10:30:50.578Z,54.03
2019-04-16T10:33:28.729Z,52.69
2019-04-16T10:36:06.239Z,54.15
2019-04-16T10:38:57.450Z,56.19
2019-04-16T10:41:41.776Z,55.47
2019-04-16T10:44:38.451Z,55.17
2019-04-16T10:47:37.205Z,53.47
2019-04-16T10:50:39.539Z,53.28
2019-04-16T10:53:22.826Z,55.51
2019-04-16T10:56:20.672Z,56.38
2019-04-16T10:59:12.947Z,56.69
2019-04-16T11:01:57.289Z,57.18
2019-04-16T11:04:50.131Z,58.60
2019-04-16T11:07:29.253Z,59.70
2019-04-16T11:10:07.569Z,59.63
2019-04-16T11:12:45.492Z,61.77
2019-04-16T11:15:24.526Z,61.98
2019-04-16T11:18:01.910Z,61.51
2019-04-16T11:20:39.308Z,62.59
2019-04-16T11:23:17.480Z,64.10
2019-04-16T11:25:54.888Z,64.42
2019-04-16T11:28:32.327Z,64.42
2019-04-16T11:31:15.640Z,65.57
2019-04-16T11:33:52.700Z,65.77
2019-04-16T11:36:31.682Z,65.68
2019-04-16T11:39:11.140Z,66.12
2019-04-16T11:41:47.940Z,67.38
2019-04-16T11:44:26.339Z,68.95
2019-04-16T11:47:03.884Z,68.38
2019-04-16T11:49:41.486Z,66.74
2019-04-16T11:52:18.506Z,67.19
2019-04-16T11:54:57.085Z,68.57
2019-04-16T11:57:35.682Z,68.64
2019-04-16T12:00:15.566Z,67.88
2019-04-16T12:03:10.949Z,67.31
2019-04-16T12:06:01.098Z,68.19
2019-04-16T12:09:03.549Z,68.67
2019-04-16T12:11:44.917Z,67.95
2019-04-16T12:14:42.463Z,68.49
2019-04-16T12:17:25.275Z,69.56
2019-04-16T12:20:22.130Z,69.59
2019-04-16T12:23:21.227Z,69.78
2019-04-16T12:26:16.106Z,69.02
2019-04-16T12:29:02.776Z,71.16
2019-04-16T12:32:11.434Z,71.26
2019-04-16T12:35:05.999Z,70.95
2019-04-16T12:38:04.339Z,70.94
2019-04-16T12:41:07.133Z,71.50
2019-04-16T12:43:50.807Z,71.40
2019-04-16T12:46:49.328Z,70.31
2019-04-16T12:49:42.971Z,70.94
2019-04-16T12:52:42.370Z,70.17
2019-04-16T12:55:44.210Z,71.47
2019-04-16T12:58:36.640Z,71.35
2019-04-16T13:01:27.558Z,72.49
2019-04-16T13:04:25.047Z,71.76
2019-04-16T13:07:20.701Z,71.32
2019-04-16T13:10:28.997Z,70.95
2019-04-16T13:13:24.418Z,70.82
2019-04-16T13:16:13.556Z,71.88
2019-04-16T13:19:11.613Z,71.41
2019-04-16T13:21:52.703Z,72.54
2019-04-16T13:24:42.936Z,73.20
2019-04-16T13:27:23.795Z,73.23
2019-04-16T13:30:03.056Z,72.50
2019-04-16T13:32:40.830Z,72.81
2019-04-16T13:35:17.701Z,72.83
2019-04-16T13:37:55.383Z,72.87
2019-04-16T13:40:32.376Z,73.04
2019-04-16T13:43:10.674Z,73.44
2019-04-16T13:45:47.149Z,73.61
2019-04-16T13:48:33.233Z,73.25
2019-04-16T13:51:18.520Z,73.01
2019-04-16T13:54:09.214Z,73.76
2019-04-16T13:56:55.918Z,74.71
2019-04-16T13:59:54.945Z,74.10
2019-04-16T14:02:40.731Z,73.34
2019-04-16T14:05:17.728Z,74.47
2019-04-16T14:07:55.955Z,75.16
2019-04-16T14:10:34.324Z,75.30
2019-04-16T14:13:14.067Z,74.12
2019-04-16T14:15:52.579Z,73.80
2019-04-16T14:18:32.705Z,74.65
2019-04-16T14:21:09.495Z,75.17
2019-04-16T14:23:46.396Z,74.56
2019-04-16T14:26:23.461Z,73.98
2019-04-16T14:29:05.543Z,74.03
2019-04-16T14:31:40.189Z,75.89
2019-04-16T14:34:33.373Z,75.46
2019-04-16T14:37:10.940Z,74.54
2019-04-16T14:39:53.804Z,75.22
2019-04-16T14:42:32.137Z,75.12
2019-04-16T14:45:20.793Z,75.23
2019-04-16T14:47:58.413Z,74.89
2019-04-16T14:50:35.833Z,74.99
2019-04-16T14:53:15.552Z,75.15
2019-04-16T14:56:01.753Z,75.74
2019-04-16T14:58:52.606Z,75.20
2019-04-16T15:01:40.731Z,75.40
2019-04-16T15:04:43.160Z,74.74
2019-04-16T15:07:39.658Z,74.36
2019-04-16T15:10:34.849Z,74.98
2019-04-16T15:13:32.371Z,75.11
2019-04-16T15:16:34.896Z,74.70
2019-04-16T15:19:30.078Z,74.75
2019-04-16T15:22:39.375Z,75.19
2019-04-16T15:25:24.076Z,75.03
2019-04-16T15:28:21.092Z,73.92
2019-04-16T15:31:07.475Z,74.25
2019-04-16T15:33:54.763Z,75.55
2019-04-16T15:36:39.503Z,73.97
2019-04-16T15:39:23.048Z,72.99
2019-04-16T15:42:20.938Z,71.95
2019-04-16T15:45:09.520Z,73.60
2019-04-16T15:48:04.573Z,72.15
2019-04-16T15:50:52.944Z,71.66
2019-04-16T15:53:37.988Z,72.24
2019-04-16T15:56:31.745Z,72.96
2019-04-16T15:59:14.916Z,72.50
2019-04-16T16:02:13.643Z,72.45
2019-04-16T16:05:02.727Z,73.16
2019-04-16T16:07:45.903Z,72.52
2019-04-16T16:10:26.702Z,73.58
2019-04-16T16:13:03.825Z,73.15
2019-04-16T16:15:41.409Z,73.86
2019-04-16T16:18:19.292Z,73.54
2019-04-16T16:20:56.127Z,72.83
2019-04-16T16:23:34.305Z,72.29
2019-04-16T16:26:11.516Z,72.10
2019-04-16T16:28:48.287Z,71.50
2019-04-16T16:31:26.020Z,71.96
2019-04-16T16:34:03.983Z,71.84
2019-04-16T16:36:40.883Z,71.29
2019-04-16T16:39:17.805Z,71.92
2019-04-16T16:41:55.416Z,71.15
2019-04-16T16:44:33.362Z,73.11
2019-04-16T16:47:28.468Z,73.69
2019-04-16T16:50:10.300Z,74.50
2019-04-16T16:53:02.894Z,73.81
2019-04-16T16:55:45.048Z,73.32
2019-04-16T16:58:35.187Z,74.20
2019-04-16T17:01:34.673Z,73.80
2019-04-16T17:04:21.712Z,73.72
2019-04-16T17:06:59.271Z,72.95
2019-04-16T17:09:38.913Z,74.58
2019-04-16T17:12:16.167Z,75.62
2019-04-16T17:14:54.514Z,75.14
2019-04-16T17:17:33.504Z,74.71
2019-04-16T17:20:11.942Z,75.85
2019-04-16T17:22:48.857Z,76.22
2019-04-16T17:25:36.228Z,75.23
2019-04-16T17:28:05.627Z,73.78
2019-04-16T17:30:42.880Z,73.51
2019-04-16T17:33:20.638Z,75.65
2019-04-16T17:35:59.017Z,75.54
2019-04-16T17:38:37.760Z,74.06
2019-04-16T17:41:18.564Z,74.72
2019-04-16T17:44:18.650Z,76.67
2019-04-16T17:47:31.944Z,76.54
2019-04-16T17:50:04.933Z,75.74
2019-04-16T17:52:58.436Z,75.05
2019-04-16T17:56:06.603Z,75.83
2019-04-16T17:59:08.358Z,75.89
2019-04-16T18:02:20.324Z,75.33
2019-04-16T18:05:23.527Z,75.62
2019-04-16T18:08:16.853Z,76.08
2019-04-16T18:11:02.205Z,76.08
2019-04-16T18:13:46.506Z,75.58
2019-04-16T18:16:42.100Z,75.57
2019-04-16T18:19:36.546Z,74.19
2019-04-16T18:22:23.380Z,75.57
2019-04-16T18:25:21.320Z,76.03
2019-04-16T18:28:09.679Z,75.49
2019-04-16T18:30:58.936Z,75.51
2019-04-16T18:33:41.895Z,75.05
2019-04-16T18:36:34.328Z,75.23
2019-04-16T18:39:28.945Z,76.36
2019-04-16T18:42:27.624Z,75.87
2019-04-16T18:45:30.491Z,75.67
2019-04-16T18:48:15.498Z,76.00
2019-04-16T18:50:52.508Z,75.93
2019-04-16T18:53:30.832Z,75.08
2019-04-16T18:56:09.585Z,75.40
2019-04-16T18:58:48.041Z,76.03
2019-04-16T19:01:29.703Z,75.65
2019-04-16T19:04:08.050Z,75.89
2019-04-16T19:06:45.324Z,75.84
2019-04-16T19:09:23.386Z,76.51
2019-04-16T19:12:00.717Z,76.35
2019-04-16T19:14:37.700Z,75.08
2019-04-16T19:17:16.630Z,75.12
2019-04-16T19:19:53.638Z,74.88
2019-04-16T19:22:30.305Z,76.39
2019-04-16T19:25:09.399Z,76.61
2019-04-16T19:27:49.078Z,74.89
2019-04-16T19:30:26.386Z,75.09
2019-04-16T19:33:03.670Z,76.45
2019-04-16T19:35:41.895Z,76.86
2019-04-16T19:38:18.985Z,75.47
2019-04-16T19:40:56.243Z,74.91
2019-04-16T19:43:35.255Z,75.11
2019-04-16T19:46:15.323Z,75.25
2019-04-16T19:48:51.449Z,74.14
2019-04-16T19:51:29.018Z,73.73
2019-04-16T19:54:07.202Z,73.19
2019-04-16T19:56:45.134Z,74.69
2019-04-16T19:59:22.962Z,75.21
2019-04-16T20:02:01.780Z,74.66
2019-04-16T20:04:41.477Z,74.74
2019-04-16T20:07:18.681Z,75.56
2019-04-16T20:09:55.658Z,74.51
2019-04-16T20:12:32.806Z,74.17
2019-04-16T20:15:09.942Z,73.64
2019-04-16T20:17:47.601Z,74.21
2019-04-16T20:20:24.557Z,74.50
2019-04-16T20:23:01.561Z,73.47
2019-04-16T20:25:38.774Z,73.17
2019-04-16T20:28:16.720Z,73.38
2019-04-16T20:31:01.968Z,73.99
2019-04-16T20:33:33.969Z,74.11
2019-04-16T20:36:11.625Z,75.06
2019-04-16T20:38:49.039Z,74.96
2019-04-16T20:41:26.337Z,75.54
2019-04-16T20:44:04.425Z,75.39
2019-04-16T20:46:41.120Z,75.08
2019-04-16T20:49:17.649Z,75.82
2019-04-16T20:51:56.572Z,76.52
2019-04-16T20:54:33.758Z,75.47
2019-04-16T20:57:10.920Z,75.09
2019-04-16T20:59:50.136Z,75.51
2019-04-16T21:02:29.894Z,77.08
2019-04-16T21:05:21.435Z,76.64
2019-04-16T21:07:47.385Z,75.31
2019-04-16T21:10:25.140Z,75.53
2019-04-16T21:13:02.402Z,76.15
2019-04-16T21:15:41.409Z,75.32
2019-04-16T21:18:18.384Z,74.96
2019-04-16T21:20:55.096Z,74.31
2019-04-16T21:23:34.772Z,74.52
2019-04-16T21:26:10.954Z,74.87
2019-04-16T21:29:05.154Z,75.55
2019-04-16T21:31:46.015Z,76.38
2019-04-16T21:34:29.894Z,76.95
2019-04-16T21:37:23.808Z,76.25
2019-04-16T21:40:04.823Z,75.50
2019-04-16T21:42:42.174Z,75.25
2019-04-16T21:45:19.682Z,75.91
2019-04-16T21:47:57.009Z,74.64
2019-04-16T21:50:33.742Z,74.30
2019-04-16T21:53:11.042Z,75.09
2019-04-16T21:55:47.733Z,76.49
2019-04-16T21:58:25.724Z,76.21
2019-04-16T22:01:35.985Z,75.23
2019-04-16T22:04:18.464Z,74.96
2019-04-16T22:06:58.307Z,76.48
2019-04-16T22:09:36.578Z,76.26
2019-04-16T22:12:15.564Z,74.72
2019-04-16T22:14:54.402Z,73.99
2019-04-16T22:17:35.445Z,74.70
2019-04-16T22:20:11.217Z,76.19
2019-04-16T22:22:47.854Z,76.24
2019-04-16T22:25:26.661Z,74.69
2019-04-16T22:28:03.624Z,75.46
2019-04-16T22:30:42.158Z,76.83
2019-04-16T22:33:19.101Z,76.97
2019-04-16T22:35:57.208Z,75.57
2019-04-16T22:38:37.098Z,75.79
2019-04-16T22:41:32.448Z,75.59
2019-04-16T22:44:26.588Z,76.83
2019-04-16T22:47:09.146Z,76.75
2019-04-16T22:49:45.864Z,76.06
2019-04-16T22:52:24.496Z,76.17
2019-04-16T22:55:01.719Z,75.75
2019-04-16T22:57:39.401Z,76.80
2019-04-16T23:00:34.789Z,77.05
2019-04-16T23:03:13.479Z,76.69
2019-04-16T23:05:50.973Z,76.29
2019-04-16T23:08:28.319Z,76.62
2019-04-16T23:11:07.053Z,77.21
2019-04-16T23:13:46.213Z,77.46
2019-04-16T23:16:23.181Z,76.21
2019-04-16T23:19:00.177Z,75.85
2019-04-16T23:21:42.331Z,75.70
2019-04-16T23:24:16.217Z,76.31
2019-04-16T23:26:53.066Z,75.52
2019-04-16T23:29:30.383Z,74.01
2019-04-16T23:32:08.197Z,73.51
2019-04-16T23:34:47.364Z,74.12
2019-04-16T23:37:25.214Z,74.09
2019-04-16T23:40:03.250Z,73.92
2019-04-16T23:42:47.456Z,74.18
2019-04-16T23:45:41.627Z,73.14
2019-04-16T23:48:28.406Z,72.97
2019-04-16T23:51:19.650Z,73.00
2019-04-16T23:54:14.019Z,71.24
2019-04-16T23:57:21.708Z,73.48
